Time;durP1;ratioP1;P1;durP2;ratioP2;P2;SDS_P1;SDS_P2;PMS_P1;PMS_P2;Temp;Humidity;BMP_temperature;BMP_pressure;BME280_temperature;BME280_humidity;BME280_pressure;Samples;Min_cycle;Max_cycle;Signal;HPM_P1;HPM_P2
2023/03/07 00:02:13;;;;;;;;;;;;;;;21.90;35.08;99805.06;7262204;19;153926;-55
2023/03/07 00:04:43;;;;;;;;;;;;;;;21.92;35.49;99805.56;7264195;19;152960;-55
2023/03/07 00:07:10;;;;;;;;;;;;;;;21.91;35.23;99804.72;7259714;19;154543;-54
2023/03/07 00:09:37;;;;;;;;;;;;;;;21.94;35.00;99797.66;7262338;19;152603;-55
2023/03/07 00:12:05;;;;;;;;;;;;;;;21.95;35.34;99796.44;7264461;19;153747;-55
2023/03/07 00:14:32;;;;;;;;;;;;;;;21.95;35.39;99788.00;7272752;19;153803;-55
2023/03/07 00:16:59;;;;;;;;;;;;;;;21.96;35.06;99781.22;7262990;19;152615;-55
2023/03/07 00:19:26;;;;;;;;;;;;;;;21.97;35.12;99780.06;7261989;19;153448;-54
2023/03/07 00:21:53;;;;;;;;;;;;;;;21.96;35.17;99778.41;7262219;19;153593;-55
2023/03/07 00:24:20;;;;;;;;;;;;;;;21.94;35.06;99775.16;7263160;19;155121;-55
2023/03/07 00:26:47;;;;;;;;;;;;;;;21.94;35.04;99767.50;7259163;19;153668;-55
2023/03/07 00:29:14;;;;;;;;;;;;;;;21.95;34.95;99765.50;7258757;19;153653;-55
2023/03/07 00:31:41;;;;;;;;;;;;;;;21.92;35.24;99764.19;7256128;19;154240;-55
2023/03/07 00:34:08;;;;;;;;;;;;;;;21.91;35.33;99776.63;7267500;19;153259;-55
2023/03/07 00:36:35;;;;;;;;;;;;;;;21.88;34.96;99768.88;7262511;19;153972;-54
2023/03/07 00:39:03;;;;;;;;;;;;;;;21.87;35.22;99755.97;7260958;19;152394;-55
2023/03/07 00:41:30;;;;;;;;;;;;;;;21.82;35.03;99761.81;7265345;19;153211;-55
2023/03/07 00:43:57;;;;;;;;;;;;;;;21.80;35.44;99764.16;7260489;19;153855;-55
2023/03/07 00:46:24;;;;;;;;;;;;;;;21.74;35.26;99752.31;7256318;19;154404;-54
2023/03/07 00:48:52;;;;;;;;;;;;;;;21.72;35.16;99756.63;7257430;19;153800;-54
2023/03/07 00:51:19;;;;;;;;;;;;;;;21.68;35.55;99753.69;7257601;19;153804;-55
2023/03/07 00:53:46;;;;;;;;;;;;;;;21.66;35.27;99755.22;7260597;19;154010;-55
2023/03/07 00:56:15;;;;;;;;;;;;;;;21.62;35.24;99752.25;7262100;19;153449;-55
2023/03/07 00:58:42;;;;;;;;;;;;;;;21.63;35.42;99751.06;7260927;19;154212;-55
2023/03/07 01:01:13;;;;;;;;;;;;;;;21.60;35.65;99734.91;7252565;19;153880;-56
2023/03/07 01:03:41;;;;;;;;;;;;;;;21.57;35.46;99732.81;7255245;19;155358;-55
2023/03/07 01:06:10;;;;;;;;;;;;;;;21.58;35.71;99734.44;7259227;19;154235;-55
2023/03/07 01:08:37;;;;;;;;;;;;;;;21.55;35.32;99729.50;7258856;19;154627;-55
2023/03/07 01:11:05;;;;;;;;;;;;;;;21.53;35.79;99726.19;7253543;19;153372;-55
2023/03/07 01:13:33;;;;;;;;;;;;;;;21.48;35.63;99726.44;7259721;19;153905;-54
2023/03/07 01:16:03;;;;;;;;;;;;;;;21.46;35.76;99717.53;7252071;19;154015;-55
2023/03/07 01:18:30;;;;;;;;;;;;;;;21.44;35.94;99707.81;7266160;19;153100;-54
2023/03/07 01:20:57;;;;;;;;;;;;;;;21.40;36.14;99718.06;7257186;19;153961;-54
2023/03/07 01:23:24;;;;;;;;;;;;;;;21.34;36.03;99720.28;7258470;19;153417;-55
2023/03/07 01:25:51;;;;;;;;;;;;;;;21.30;35.95;99720.13;7260013;19;154093;-54
2023/03/07 01:28:18;;;;;;;;;;;;;;;21.26;35.92;99715.53;7260557;19;154499;-55
2023/03/07 01:30:55;;;;;;;;;;;;;;;21.21;35.99;99721.38;7256554;19;154036;-55
2023/03/07 01:33:22;;;;;;;;;;;;;;;21.19;36.28;99720.91;7258787;19;153285;-54
2023/03/07 01:35:49;;;;;;;;;;;;;;;21.16;36.50;99696.31;7259422;19;154036;-55
2023/03/07 01:38:16;;;;;;;;;;;;;;;21.12;36.32;99721.41;7256959;19;153852;-55
2023/03/07 01:40:43;;;;;;;;;;;;;;;21.07;36.39;99716.00;7271281;19;153233;-55
2023/03/07 01:43:13;;;;;;;;;;;;;;;21.05;36.26;99707.09;7256832;19;153521;-52
2023/03/07 01:45:42;;;;;;;;;;;;;;;21.06;36.25;99708.75;7257715;19;155209;-54
2023/03/07 01:48:09;;;;;;;;;;;;;;;21.07;36.30;99709.56;7255637;19;154982;-54
2023/03/07 01:50:36;;;;;;;;;;;;;;;20.99;36.71;99707.63;7256675;19;153978;-54
2023/03/07 01:53:04;;;;;;;;;;;;;;;20.97;36.72;99715.59;7255477;19;153245;-54
2023/03/07 01:55:32;;;;;;;;;;;;;;;20.92;36.82;99713.81;7236270;19;154519;-54
2023/03/07 01:58:03;;;;;;;;;;;;;;;20.89;37.06;99713.66;7235460;19;153612;-54
2023/03/07 02:00:30;;;;;;;;;;;;;;;20.85;36.93;99713.50;7250202;19;154451;-54
2023/03/07 02:03:00;;;;;;;;;;;;;;;20.82;36.92;99719.81;7255744;19;154996;-54
2023/03/07 02:05:31;;;;;;;;;;;;;;;20.78;36.82;99718.84;7258793;19;153106;-54
2023/03/07 02:07:59;;;;;;;;;;;;;;;20.73;36.87;99722.69;7255656;19;153455;-54
2023/03/07 02:10:26;;;;;;;;;;;;;;;20.70;36.83;99720.56;7238459;19;154602;-54
2023/03/07 02:12:53;;;;;;;;;;;;;;;20.73;36.69;99724.66;7227234;19;154041;-54
2023/03/07 02:15:20;;;;;;;;;;;;;;;20.65;37.02;99709.53;7254614;19;154124;-54
2023/03/07 02:17:48;;;;;;;;;;;;;;;20.65;36.96;99714.31;7246560;19;153757;-54
2023/03/07 02:20:17;;;;;;;;;;;;;;;20.63;36.92;99714.63;7247772;19;156697;-54
2023/03/07 02:22:43;;;;;;;;;;;;;;;20.60;36.76;99706.91;7265708;19;154357;-54
2023/03/07 02:25:16;;;;;;;;;;;;;;;20.53;36.72;99706.63;7271967;19;152966;-54
2023/03/07 02:27:45;;;;;;;;;;;;;;;20.49;37.04;99704.84;7261183;19;153476;-54
2023/03/07 02:30:12;;;;;;;;;;;;;;;20.42;37.24;99706.19;7259782;19;153085;-54
2023/03/07 02:32:39;;;;;;;;;;;;;;;20.39;37.16;99706.88;7260399;19;153915;-54
2023/03/07 02:35:09;;;;;;;;;;;;;;;20.39;36.90;99712.47;7260553;19;154551;-54
2023/03/07 02:37:37;;;;;;;;;;;;;;;20.32;37.16;99712.16;7261215;19;153375;-54
2023/03/07 02:40:07;;;;;;;;;;;;;;;20.41;36.80;99703.72;7261184;19;153278;-55
2023/03/07 02:42:36;;;;;;;;;;;;;;;20.41;37.45;99704.53;7261272;19;155135;-54
2023/03/07 02:45:04;;;;;;;;;;;;;;;20.36;37.54;99699.09;7269214;19;153343;-55
2023/03/07 02:47:31;;;;;;;;;;;;;;;20.35;37.44;99703.06;7256527;19;154520;-54
2023/03/07 02:49:58;;;;;;;;;;;;;;;20.41;37.07;99687.69;7262105;19;153081;-54
2023/03/07 02:52:27;;;;;;;;;;;;;;;20.46;37.20;99709.13;7259542;19;154994;-55
2023/03/07 02:54:54;;;;;;;;;;;;;;;20.50;37.28;99700.84;7260410;19;154274;-55
2023/03/07 02:57:21;;;;;;;;;;;;;;;20.57;37.42;99701.16;7260166;19;152913;-54
2023/03/07 02:59:48;;;;;;;;;;;;;;;20.62;37.37;99701.78;7261257;19;153745;-54
2023/03/07 03:02:15;;;;;;;;;;;;;;;20.65;37.08;99703.09;7253965;19;154007;-54
2023/03/07 03:04:42;;;;;;;;;;;;;;;20.67;37.24;99703.59;7261031;19;154333;-54
2023/03/07 03:07:09;;;;;;;;;;;;;;;20.71;37.54;99702.56;7266066;19;154628;-54
2023/03/07 03:09:36;;;;;;;;;;;;;;;20.73;37.08;99705.84;7262251;19;152298;-54
2023/03/07 03:12:03;;;;;;;;;;;;;;;20.73;37.44;99703.03;7258305;19;153911;-55
2023/03/07 03:14:31;;;;;;;;;;;;;;;20.77;37.32;99700.34;7258924;19;155986;-55
2023/03/07 03:16:58;;;;;;;;;;;;;;;20.79;37.11;99700.84;7257986;19;153375;-54
2023/03/07 03:19:25;;;;;;;;;;;;;;;20.82;37.14;99697.34;7260593;19;154301;-54
2023/03/07 03:21:52;;;;;;;;;;;;;;;20.85;36.98;99700.28;7258572;19;155913;-54
2023/03/07 03:24:19;;;;;;;;;;;;;;;20.85;36.91;99705.09;7259064;19;152367;-54
2023/03/07 03:26:46;;;;;;;;;;;;;;;20.87;36.98;99708.38;7257265;19;153637;-55
2023/03/07 03:29:13;;;;;;;;;;;;;;;20.88;37.11;99712.00;7266729;19;156167;-54
2023/03/07 03:31:40;;;;;;;;;;;;;;;20.90;37.28;99713.31;7257263;19;155227;-55
2023/03/07 03:34:08;;;;;;;;;;;;;;;20.94;36.96;99713.47;7260796;19;153439;-55
2023/03/07 03:36:35;;;;;;;;;;;;;;;20.97;37.16;99712.78;7256936;19;154085;-55
2023/03/07 03:39:02;;;;;;;;;;;;;;;21.00;37.17;99709.28;7263024;19;153346;-54
2023/03/07 03:41:29;;;;;;;;;;;;;;;21.03;37.31;99700.97;7258917;19;153993;-54
2023/03/07 03:43:56;;;;;;;;;;;;;;;21.06;37.22;99707.91;7260959;19;154081;-54
2023/03/07 03:46:23;;;;;;;;;;;;;;;21.10;37.49;99700.44;7255723;19;154438;-54
2023/03/07 03:48:52;;;;;;;;;;;;;;;21.11;37.22;99694.50;7260457;19;153516;-54
2023/03/07 03:51:19;;;;;;;;;;;;;;;21.15;37.46;99697.47;7264672;19;155384;-54
2023/03/07 03:53:46;;;;;;;;;;;;;;;21.18;37.36;99700.41;7255037;19;153683;-54
2023/03/07 03:56:14;;;;;;;;;;;;;;;21.21;37.31;99702.53;7256114;19;153392;-54
2023/03/07 03:58:42;;;;;;;;;;;;;;;21.23;37.36;99696.56;7257477;19;152893;-54
2023/03/07 04:01:10;;;;;;;;;;;;;;;21.27;36.91;99692.72;7253059;19;154047;-54
2023/03/07 04:03:38;;;;;;;;;;;;;;;21.28;36.80;99687.94;7254319;19;153753;-54
2023/03/07 04:06:06;;;;;;;;;;;;;;;21.30;36.81;99685.63;7258579;19;152795;-54
2023/03/07 04:08:34;;;;;;;;;;;;;;;21.30;36.69;99691.22;7257310;19;154599;-55
2023/03/07 04:11:01;;;;;;;;;;;;;;;21.33;36.97;99684.09;7256571;19;154452;-55
2023/03/07 04:13:27;;;;;;;;;;;;;;;21.34;36.97;99685.75;7266969;19;153569;-55
2023/03/07 04:15:54;;;;;;;;;;;;;;;21.33;36.58;99684.91;7256603;19;153445;-55
2023/03/07 04:18:22;;;;;;;;;;;;;;;21.35;36.68;99682.56;7260120;19;154282;-54
2023/03/07 04:20:51;;;;;;;;;;;;;;;21.35;36.77;99682.56;7259300;19;155120;-54
2023/03/07 04:23:19;;;;;;;;;;;;;;;21.35;36.62;99678.97;7258565;19;154375;-54
2023/03/07 04:25:48;;;;;;;;;;;;;;;21.36;36.57;99669.34;7257734;19;154403;-54
2023/03/07 04:28:16;;;;;;;;;;;;;;;21.37;36.39;99671.81;7257329;19;153479;-54
2023/03/07 04:30:43;;;;;;;;;;;;;;;21.36;36.67;99661.75;7255688;19;153927;-54
2023/03/07 04:33:11;;;;;;;;;;;;;;;21.36;36.46;99672.97;7256615;19;153896;-54
2023/03/07 04:35:38;;;;;;;;;;;;;;;21.35;36.76;99665.72;7262056;19;152019;-54
2023/03/07 04:38:06;;;;;;;;;;;;;;;21.36;36.31;99669.34;7256440;19;153401;-54
2023/03/07 04:40:33;;;;;;;;;;;;;;;21.37;36.27;99668.19;7255621;19;153614;-54
2023/03/07 04:43:00;;;;;;;;;;;;;;;21.36;36.56;99660.91;7257002;19;155474;-55
2023/03/07 04:45:27;;;;;;;;;;;;;;;21.34;36.63;99655.66;7253087;19;154140;-54
2023/03/07 04:47:54;;;;;;;;;;;;;;;21.33;36.45;99662.44;7254214;19;154245;-55
2023/03/07 04:50:21;;;;;;;;;;;;;;;21.34;36.47;99674.50;7255125;19;154299;-55
2023/03/07 04:52:49;;;;;;;;;;;;;;;21.31;36.23;99676.00;7258268;19;154626;-54
2023/03/07 04:55:16;;;;;;;;;;;;;;;21.32;36.32;99679.63;7262932;19;153802;-54
2023/03/07 04:57:43;;;;;;;;;;;;;;;21.28;36.24;99674.72;7256948;19;153337;-54
2023/03/07 05:00:10;;;;;;;;;;;;;;;21.24;36.66;99670.13;7252940;19;153322;-54
2023/03/07 05:02:37;;;;;;;;;;;;;;;21.17;36.86;99679.09;7253639;19;152925;-54
2023/03/07 05:05:05;;;;;;;;;;;;;;;21.13;36.93;99680.13;7252109;19;154027;-54
2023/03/07 05:07:32;;;;;;;;;;;;;;;21.14;37.16;99670.53;7253735;19;154432;-54
2023/03/07 05:09:59;;;;;;;;;;;;;;;21.07;36.67;99662.66;7257996;19;154561;-53
2023/03/07 05:12:26;;;;;;;;;;;;;;;21.07;36.80;99667.44;7257362;19;153921;-54
2023/03/07 05:14:53;;;;;;;;;;;;;;;21.10;36.75;99672.38;7254718;19;152671;-54
2023/03/07 05:17:20;;;;;;;;;;;;;;;21.14;36.85;99664.94;7260865;19;152406;-55
2023/03/07 05:19:46;;;;;;;;;;;;;;;21.12;37.30;99658.81;7256856;19;154149;-54
2023/03/07 05:22:13;;;;;;;;;;;;;;;21.13;37.24;99666.09;7255122;19;154201;-54
2023/03/07 05:24:40;;;;;;;;;;;;;;;21.13;37.04;99672.53;7255434;19;154927;-54
2023/03/07 05:27:07;;;;;;;;;;;;;;;21.15;37.00;99666.56;7255182;19;154325;-55
2023/03/07 05:29:34;;;;;;;;;;;;;;;21.18;37.27;99666.69;7256211;19;152731;-55
2023/03/07 05:32:01;;;;;;;;;;;;;;;21.21;37.58;99665.22;7250899;19;152965;-55
2023/03/07 05:34:28;;;;;;;;;;;;;;;21.22;37.03;99670.47;7256475;19;154253;-54
2023/03/07 05:36:57;;;;;;;;;;;;;;;21.26;37.25;99668.59;7255096;19;152928;-54
2023/03/07 05:39:26;;;;;;;;;;;;;;;21.29;37.41;99667.09;7261294;19;153554;-54
2023/03/07 05:41:53;;;;;;;;;;;;;;;21.30;37.33;99663.13;7254734;19;152810;-54
2023/03/07 05:44:20;;;;;;;;;;;;;;;21.33;37.28;99667.22;7255795;19;153010;-53
2023/03/07 05:46:47;;;;;;;;;;;;;;;21.33;37.40;99661.63;7252771;19;153830;-54
2023/03/07 05:49:14;;;;;;;;;;;;;;;21.34;37.25;99663.25;7254940;19;153978;-54
2023/03/07 05:51:41;;;;;;;;;;;;;;;21.36;37.29;99655.28;7259385;19;152752;-54
2023/03/07 05:54:08;;;;;;;;;;;;;;;21.38;37.26;99651.00;7253619;19;153955;-54
2023/03/07 05:56:36;;;;;;;;;;;;;;;21.39;37.36;99654.63;7253603;19;154146;-54
2023/03/07 05:59:06;;;;;;;;;;;;;;;21.40;37.22;99662.69;7256578;19;153262;-54
2023/03/07 06:01:33;;;;;;;;;;;;;;;21.44;37.44;99654.41;7259142;19;154445;-55
2023/03/07 06:04:00;;;;;;;;;;;;;;;21.46;37.61;99661.31;7254046;19;155470;-54
2023/03/07 06:06:27;;;;;;;;;;;;;;;21.49;37.62;99660.63;7253404;19;155508;-53
2023/03/07 06:08:54;;;;;;;;;;;;;;;21.51;37.68;99663.09;7250820;19;152919;-55
2023/03/07 06:11:21;;;;;;;;;;;;;;;21.54;37.61;99668.00;7256694;19;152879;-54
2023/03/07 06:13:48;;;;;;;;;;;;;;;21.57;37.27;99653.28;7250777;19;154332;-55
2023/03/07 06:16:15;;;;;;;;;;;;;;;21.60;37.54;99655.38;7253501;19;153385;-55
2023/03/07 06:18:42;;;;;;;;;;;;;;;21.62;37.16;99647.44;7254173;19;154044;-55
2023/03/07 06:21:11;;;;;;;;;;;;;;;21.64;37.52;99637.47;7253141;19;154125;-54
2023/03/07 06:23:38;;;;;;;;;;;;;;;21.65;37.26;99636.31;7261686;19;153286;-55
2023/03/07 06:26:06;;;;;;;;;;;;;;;21.67;37.04;99636.78;7251355;19;152967;-55
2023/03/07 06:28:34;;;;;;;;;;;;;;;21.69;36.79;99637.25;7255243;19;153240;-55
2023/03/07 06:31:06;;;;;;;;;;;;;;;21.70;37.22;99633.28;7253386;19;152624;-55
2023/03/07 06:33:34;;;;;;;;;;;;;;;21.71;37.15;99642.53;7255182;19;155407;-55
2023/03/07 06:36:04;;;;;;;;;;;;;;;21.71;36.80;99642.53;7260106;19;154558;-55
2023/03/07 06:38:31;;;;;;;;;;;;;;;21.72;36.98;99642.19;7253055;19;153969;-55
2023/03/07 06:40:58;;;;;;;;;;;;;;;21.74;36.63;99639.84;7253759;19;154477;-55
2023/03/07 06:43:26;;;;;;;;;;;;;;;21.74;36.69;99639.84;7261436;19;153391;-55
2023/03/07 06:45:53;;;;;;;;;;;;;;;21.74;36.37;99634.22;7249269;19;155127;-55
2023/03/07 06:48:20;;;;;;;;;;;;;;;21.76;36.72;99639.47;7251753;19;153865;-55
2023/03/07 06:50:47;;;;;;;;;;;;;;;21.73;36.21;99648.63;7254493;19;152782;-55
2023/03/07 06:53:15;;;;;;;;;;;;;;;21.73;36.47;99645.81;7251374;19;154621;-54
2023/03/07 06:55:42;;;;;;;;;;;;;;;21.73;36.66;99657.88;7260071;19;153457;-54
2023/03/07 06:58:09;;;;;;;;;;;;;;;21.74;36.48;99655.91;7253843;19;153338;-54
2023/03/07 07:00:36;;;;;;;;;;;;;;;21.76;36.07;99661.97;7253175;19;153300;-54
2023/03/07 07:03:04;;;;;;;;;;;;;;;21.70;36.37;99654.94;7259049;19;154045;-55
2023/03/07 07:05:31;;;;;;;;;;;;;;;21.69;36.62;99656.94;7263821;19;153276;-55
2023/03/07 07:07:58;;;;;;;;;;;;;;;21.71;36.57;99656.59;7257188;19;153089;-55
2023/03/07 07:10:25;;;;;;;;;;;;;;;21.70;36.19;99649.31;7257295;19;153273;-55
2023/03/07 07:12:55;;;;;;;;;;;;;;;21.67;36.21;99653.63;7260991;19;153701;-55
2023/03/07 07:15:23;;;;;;;;;;;;;;;21.66;36.17;99652.03;7257969;19;152867;-54
2023/03/07 07:17:50;;;;;;;;;;;;;;;21.62;36.96;99658.69;7257850;19;152603;-54
2023/03/07 07:20:18;;;;;;;;;;;;;;;21.60;37.08;99659.03;7257021;19;153823;-54
2023/03/07 07:22:45;;;;;;;;;;;;;;;21.60;37.34;99656.22;7256710;19;153191;-54
2023/03/07 07:25:12;;;;;;;;;;;;;;;21.57;36.80;99644.84;7257429;19;153710;-54
2023/03/07 07:27:39;;;;;;;;;;;;;;;21.56;36.98;99658.06;7266693;19;153847;-54
2023/03/07 07:30:07;;;;;;;;;;;;;;;21.54;36.56;99660.41;7255111;19;153648;-54
2023/03/07 07:32:34;;;;;;;;;;;;;;;21.53;36.70;99661.56;7257324;19;153189;-54
2023/03/07 07:35:02;;;;;;;;;;;;;;;21.09;33.13;99663.13;7258726;19;153795;-54
2023/03/07 07:37:29;;;;;;;;;;;;;;;21.08;34.00;99669.06;7257563;19;154172;-54
2023/03/07 07:39:57;;;;;;;;;;;;;;;21.06;34.53;99658.19;7248597;19;153093;-53
2023/03/07 07:42:24;;;;;;;;;;;;;;;21.02;34.72;99665.66;7255384;19;153395;-53
2023/03/07 07:44:50;;;;;;;;;;;;;;;21.03;34.34;99677.72;7256007;19;154028;-54
2023/03/07 07:47:18;;;;;;;;;;;;;;;21.02;34.78;99671.28;7254827;19;152506;-54
2023/03/07 07:49:47;;;;;;;;;;;;;;;21.02;34.46;99671.28;7265835;19;153777;-54
2023/03/07 07:52:14;;;;;;;;;;;;;;;21.01;34.38;99666.81;7255393;19;154320;-54
2023/03/07 07:54:41;;;;;;;;;;;;;;;21.01;34.77;99671.63;7258137;19;153743;-54
2023/03/07 07:57:08;;;;;;;;;;;;;;;20.96;34.32;99674.63;7258115;19;153782;-54
2023/03/07 07:59:35;;;;;;;;;;;;;;;20.92;34.62;99666.06;7252371;19;157469;-54
2023/03/07 08:02:04;;;;;;;;;;;;;;;20.84;34.88;99679.03;7255484;19;152402;-54
2023/03/07 08:04:34;;;;;;;;;;;;;;;20.88;34.57;99678.31;7256465;19;153535;-54
2023/03/07 08:07:01;;;;;;;;;;;;;;;20.86;35.46;99676.69;7252806;19;152139;-54
2023/03/07 08:09:28;;;;;;;;;;;;;;;20.88;34.75;99681.97;7253693;19;154207;-54
2023/03/07 08:11:55;;;;;;;;;;;;;;;20.81;34.72;99684.47;7263373;19;154634;-54
2023/03/07 08:14:23;;;;;;;;;;;;;;;20.75;34.68;99686.69;7257353;19;152194;-54
2023/03/07 08:16:50;;;;;;;;;;;;;;;20.63;34.91;99683.78;7240456;19;153935;-53
2023/03/07 08:19:17;;;;;;;;;;;;;;;20.67;34.66;99684.72;7254714;19;153554;-54
2023/03/07 08:21:45;;;;;;;;;;;;;;;20.57;35.04;99682.34;7257620;19;153884;-54
2023/03/07 08:24:12;;;;;;;;;;;;;;;20.49;35.04;99680.38;7255737;19;153432;-53
2023/03/07 08:26:40;;;;;;;;;;;;;;;20.52;34.81;99692.94;7256404;19;153058;-54
2023/03/07 08:29:07;;;;;;;;;;;;;;;20.46;35.27;99689.50;7260011;19;153186;-54
2023/03/07 08:31:35;;;;;;;;;;;;;;;20.49;35.37;99682.41;7255391;19;153402;-53
2023/03/07 08:34:02;;;;;;;;;;;;;;;20.47;35.25;99684.69;7263867;19;156102;-53
2023/03/07 08:36:30;;;;;;;;;;;;;;;20.43;35.44;99678.94;7257830;19;156209;-53
2023/03/07 08:38:59;;;;;;;;;;;;;;;20.36;35.49;99679.47;7252514;19;154391;-54
2023/03/07 08:41:27;;;;;;;;;;;;;;;20.34;35.24;99679.00;7255993;19;152788;-53
2023/03/07 08:43:55;;;;;;;;;;;;;;;20.33;35.45;99682.13;7252520;19;152343;-53
2023/03/07 08:46:22;;;;;;;;;;;;;;;20.33;35.34;99684.94;7253338;19;153335;-54
2023/03/07 08:48:52;;;;;;;;;;;;;;;20.25;35.32;99685.78;7255350;19;152412;-54
2023/03/07 08:51:23;;;;;;;;;;;;;;;20.24;35.50;99684.13;7257586;19;153053;-54
2023/03/07 08:53:50;;;;;;;;;;;;;;;20.21;35.46;99690.44;7256831;19;154733;-54
2023/03/07 08:56:18;;;;;;;;;;;;;;;20.20;35.48;99685.97;7255542;19;153906;-54
2023/03/07 08:58:48;;;;;;;;;;;;;;;20.17;35.23;99697.88;7252624;19;154952;-54
2023/03/07 09:01:15;;;;;;;;;;;;;;;20.14;35.32;99701.31;7254232;19;153378;-54
2023/03/07 09:03:45;;;;;;;;;;;;;;;20.08;35.30;99695.06;7248177;19;157406;-54
2023/03/07 09:06:14;;;;;;;;;;;;;;;20.05;35.48;99695.75;7234828;19;155116;-54
2023/03/07 09:08:43;;;;;;;;;;;;;;;20.02;35.58;99698.41;7251534;19;153981;-54
2023/03/07 09:11:11;;;;;;;;;;;;;;;19.99;35.46;99697.91;7253994;19;154048;-54
2023/03/07 09:13:38;;;;;;;;;;;;;;;19.93;35.65;99687.22;7254907;19;154179;-54
2023/03/07 09:16:20;;;;;;;;;;;;;;;19.89;35.49;99700.28;7263461;19;153244;-54
2023/03/07 09:18:48;;;;;;;;;;;;;;;19.88;35.31;99687.41;7254176;19;153219;-54
2023/03/07 09:21:16;;;;;;;;;;;;;;;19.82;35.52;99695.16;7255602;19;152611;-55
2023/03/07 09:23:46;;;;;;;;;;;;;;;19.79;35.77;99693.03;7257394;19;153482;-53
2023/03/07 09:26:14;;;;;;;;;;;;;;;19.78;35.75;99688.59;7252823;19;155187;-53
2023/03/07 09:28:41;;;;;;;;;;;;;;;19.76;35.43;99696.50;7257208;19;154094;-54
2023/03/07 09:31:09;;;;;;;;;;;;;;;19.75;35.34;99689.28;7251325;19;153950;-54
2023/03/07 09:33:36;;;;;;;;;;;;;;;19.73;35.42;99696.34;7251464;19;155725;-54
2023/03/07 09:36:05;;;;;;;;;;;;;;;19.68;35.71;99690.91;7255241;19;154068;-54
2023/03/07 09:38:33;;;;;;;;;;;;;;;19.66;35.92;99693.25;7260706;19;152731;-54
2023/03/07 09:41:06;;;;;;;;;;;;;;;19.61;35.58;99696.22;7255163;19;153869;-54
2023/03/07 09:43:45;;;;;;;;;;;;;;;19.56;35.85;99702.81;7253256;19;153728;-54
2023/03/07 09:46:15;;;;;;;;;;;;;;;19.60;35.94;99698.19;7253530;19;154899;-54
2023/03/07 09:48:44;;;;;;;;;;;;;;;19.58;35.96;99703.28;7255540;19;154388;-54
2023/03/07 09:51:12;;;;;;;;;;;;;;;19.54;36.05;99700.34;7248514;19;153886;-55
2023/03/07 09:53:41;;;;;;;;;;;;;;;19.50;36.01;99699.38;7228178;19;155926;-54
2023/03/07 09:56:13;;;;;;;;;;;;;;;19.54;36.00;99697.53;7254666;19;152473;-55
2023/03/07 09:58:45;;;;;;;;;;;;;;;19.61;36.20;99691.44;7250977;19;152477;-54
2023/03/07 10:01:14;;;;;;;;;;;;;;;19.63;35.95;99686.31;7258822;19;155237;-55
2023/03/07 10:03:50;;;;;;;;;;;;;;;19.67;35.92;99686.50;7253732;19;154264;-54
2023/03/07 10:06:22;;;;;;;;;;;;;;;19.68;35.99;99683.34;7253602;19;152891;-55
2023/03/07 10:08:49;;;;;;;;;;;;;;;19.73;35.83;99685.13;7250813;19;153930;-54
2023/03/07 10:11:25;;;;;;;;;;;;;;;19.80;35.56;99693.88;7243609;19;153268;-54
2023/03/07 10:13:54;;;;;;;;;;;;;;;19.90;35.85;99682.28;7253480;19;153326;-55
2023/03/07 10:16:22;;;;;;;;;;;;;;;19.95;35.75;99682.94;7253699;19;153974;-55
2023/03/07 10:18:53;;;;;;;;;;;;;;;20.02;35.59;99681.59;7254805;19;154816;-54
2023/03/07 10:21:21;;;;;;;;;;;;;;;20.05;35.40;99689.31;7255534;19;153880;-54
2023/03/07 10:23:51;;;;;;;;;;;;;;;20.10;35.32;99681.56;7263578;19;153948;-54
2023/03/07 10:26:21;;;;;;;;;;;;;;;20.14;35.31;99676.09;7256521;19;154210;-54
2023/03/07 10:28:49;;;;;;;;;;;;;;;20.16;35.50;99676.59;7255122;19;152851;-54
2023/03/07 10:31:24;;;;;;;;;;;;;;;20.19;35.56;99684.31;7251059;19;153533;-54
2023/03/07 10:33:54;;;;;;;;;;;;;;;20.21;35.47;99687.63;7249506;19;155470;-54
2023/03/07 10:36:27;;;;;;;;;;;;;;;20.21;35.26;99687.63;7259116;19;154879;-54
2023/03/07 10:38:59;;;;;;;;;;;;;;;20.21;35.49;99685.66;7258378;19;155665;-54
2023/03/07 10:41:27;;;;;;;;;;;;;;;20.21;35.31;99687.63;7257729;19;154857;-55
2023/03/07 10:43:55;;;;;;;;;;;;;;;20.26;35.18;99684.63;7258206;19;154434;-54
2023/03/07 10:46:25;;;;;;;;;;;;;;;20.31;35.53;99687.25;7265310;19;152516;-56
2023/03/07 10:48:53;;;;;;;;;;;;;;;20.36;35.61;99684.25;7256650;19;153247;-55
2023/03/07 10:51:24;;;;;;;;;;;;;;;20.40;36.03;99685.22;7261580;19;154808;-55
2023/03/07 10:53:52;;;;;;;;;;;;;;;20.42;36.03;99683.75;7256672;19;153258;-55
2023/03/07 10:56:19;;;;;;;;;;;;;;;20.47;35.95;99681.91;7263327;19;153196;-55
2023/03/07 10:58:55;;;;;;;;;;;;;;;20.50;36.02;99679.22;7258073;19;155874;-54
2023/03/07 11:01:26;;;;;;;;;;;;;;;20.53;36.52;99684.19;7255506;19;154772;-55
2023/03/07 11:03:57;;;;;;;;;;;;;;;20.57;36.32;99684.31;7258435;19;154301;-54
2023/03/07 11:06:25;;;;;;;;;;;;;;;20.61;36.24;99691.72;7267908;19;153242;-54
2023/03/07 11:08:54;;;;;;;;;;;;;;;20.65;36.64;99692.69;7255502;19;153641;-54
2023/03/07 11:11:23;;;;;;;;;;;;;;;20.69;36.51;99698.44;7260903;19;153109;-54
2023/03/07 11:13:54;;;;;;;;;;;;;;;20.72;36.53;99692.97;7259148;19;152953;-54
2023/03/07 11:16:22;;;;;;;;;;;;;;;20.77;36.46;99701.19;7260824;19;153209;-55
2023/03/07 11:18:49;;;;;;;;;;;;;;;20.81;36.38;99695.69;7259830;19;153454;-54
2023/03/07 11:21:19;;;;;;;;;;;;;;;20.83;36.13;99702.63;7259685;19;153093;-54
2023/03/07 11:23:56;;;;;;;;;;;;;;;20.86;36.36;99704.75;7259510;19;154631;-54
2023/03/07 11:26:24;;;;;;;;;;;;;;;20.92;36.20;99707.34;7262163;19;153457;-54
2023/03/07 11:28:58;;;;;;;;;;;;;;;20.95;36.56;99709.47;7266046;19;154038;-54
2023/03/07 11:31:29;;;;;;;;;;;;;;;20.98;36.57;99717.25;7259183;19;152483;-54
2023/03/07 11:34:05;;;;;;;;;;;;;;;21.01;36.05;99713.75;7257304;19;153308;-54
2023/03/07 11:36:34;;;;;;;;;;;;;;;21.03;36.29;99717.84;7262658;19;153612;-54
2023/03/07 11:39:05;;;;;;;;;;;;;;;21.07;36.10;99718.00;7258433;19;152424;-54
2023/03/07 11:41:35;;;;;;;;;;;;;;;21.09;36.44;99724.06;7259205;19;153545;-54
2023/03/07 11:44:05;;;;;;;;;;;;;;;21.10;36.51;99726.56;7258911;19;153435;-55
2023/03/07 11:46:36;;;;;;;;;;;;;;;21.14;36.48;99726.72;7260111;19;154260;-55
2023/03/07 11:49:07;;;;;;;;;;;;;;;21.13;36.19;99723.09;7257904;19;154157;-55
2023/03/07 11:51:44;;;;;;;;;;;;;;;21.16;36.28;99730.03;7269578;19;153783;-54
2023/03/07 11:54:18;;;;;;;;;;;;;;;21.18;36.08;99734.13;7258010;19;153520;-55
2023/03/07 11:56:48;;;;;;;;;;;;;;;21.19;36.28;99732.97;7259648;19;153780;-55
2023/03/07 11:59:19;;;;;;;;;;;;;;;21.21;35.98;99722.19;7258477;19;153842;-55
2023/03/07 12:01:49;;;;;;;;;;;;;;;21.20;36.02;99730.97;7259499;19;154249;-55
2023/03/07 12:04:17;;;;;;;;;;;;;;;21.21;36.13;99733.41;7261822;19;153593;-55
2023/03/07 12:06:47;;;;;;;;;;;;;;;21.21;35.87;99727.81;7261327;19;152228;-55
2023/03/07 12:09:15;;;;;;;;;;;;;;;21.22;36.01;99731.44;7259492;19;153806;-54
2023/03/07 12:11:43;;;;;;;;;;;;;;;21.19;36.21;99729.31;7260331;19;153644;-54
2023/03/07 12:14:12;;;;;;;;;;;;;;;21.19;36.50;99727.34;7265467;19;153851;-54
2023/03/07 12:16:40;;;;;;;;;;;;;;;21.20;36.31;99731.81;7258485;19;153063;-54
2023/03/07 12:19:11;;;;;;;;;;;;;;;21.17;36.07;99740.06;7258971;19;153256;-54
2023/03/07 12:21:49;;;;;;;;;;;;;;;21.18;36.24;99727.66;7258506;19;154821;-54
2023/03/07 12:24:19;;;;;;;;;;;;;;;21.15;36.32;99725.56;7258666;19;153498;-54
2023/03/07 12:26:52;;;;;;;;;;;;;;;21.13;35.92;99722.25;7258243;19;155902;-54
2023/03/07 12:29:28;;;;;;;;;;;;;;;21.08;36.36;99726.06;7256497;19;153247;-54
2023/03/07 12:31:59;;;;;;;;;;;;;;;21.05;36.21;99721.13;7257701;19;153352;-54
2023/03/07 12:34:29;;;;;;;;;;;;;;;21.04;36.52;99729.91;7258787;19;153353;-54
2023/03/07 12:37:00;;;;;;;;;;;;;;;21.06;36.70;99733.19;7264828;19;153430;-54
2023/03/07 12:39:32;;;;;;;;;;;;;;;21.07;36.55;99732.03;7261944;19;153362;-54
2023/03/07 12:42:02;;;;;;;;;;;;;;;21.05;36.98;99725.94;7259402;19;154158;-54